sensor_id;sensor_type;location;lat;lon;timestamp;noise_LAeq;noise_LA_min;noise_LA_max;noise_LA01;noise_LA95
68279;Laerm;55108;51.790;10.960;2023-01-09T00:01:20;28.94;25.98;35.80;;
68279;Laerm;55108;51.790;10.960;2023-01-09T00:03:45;62.11;26.67;80.78;;
68279;Laerm;55108;51.790;10.960;2023-01-09T00:06:11;56.96;26.02;74.80;;
68279;Laerm;55108;51.790;10.960;2023-01-09T00:08:36;28.75;26.02;36.56;;
68279;Laerm;55108;51.790;10.960;2023-01-09T00:11:01;28.65;26.29;39.50;;
68279;Laerm;55108;51.790;10.960;2023-01-09T00:13:26;27.79;26.12;33.47;;
68279;Laerm;55108;51.790;10.960;2023-01-09T00:15:51;32.13;25.83;46.14;;
68279;Laerm;55108;51.790;10.960;2023-01-09T00:18:16;29.66;25.97;38.59;;
68279;Laerm;55108;51.790;10.960;2023-01-09T00:20:42;53.87;26.17;72.78;;
68279;Laerm;55108;51.790;10.960;2023-01-09T00:23:07;27.21;25.76;33.73;;
68279;Laerm;55108;51.790;10.960;2023-01-09T00:25:32;27.12;25.76;32.40;;
68279;Laerm;55108;51.790;10.960;2023-01-09T00:27:57;28.77;25.94;37.15;;
68279;Laerm;55108;51.790;10.960;2023-01-09T00:30:22;29.20;25.77;37.54;;
68279;Laerm;55108;51.790;10.960;2023-01-09T00:32:47;28.65;26.05;37.28;;
68279;Laerm;55108;51.790;10.960;2023-01-09T00:35:14;29.55;26.22;37.79;;
68279;Laerm;55108;51.790;10.960;2023-01-09T00:37:39;56.61;26.04;75.55;;
68279;Laerm;55108;51.790;10.960;2023-01-09T00:40:04;30.27;26.56;43.38;;
68279;Laerm;55108;51.790;10.960;2023-01-09T00:42:30;27.91;26.15;35.83;;
68279;Laerm;55108;51.790;10.960;2023-01-09T00:44:58;57.41;26.20;77.08;;
68279;Laerm;55108;51.790;10.960;2023-01-09T00:47:36;30.94;26.24;37.38;;
68279;Laerm;55108;51.790;10.960;2023-01-09T00:50:04;29.21;26.72;35.69;;
68279;Laerm;55108;51.790;10.960;2023-01-09T00:52:30;31.16;25.74;44.08;;
68279;Laerm;55108;51.790;10.960;2023-01-09T00:54:57;27.60;26.04;39.73;;
68279;Laerm;55108;51.790;10.960;2023-01-09T00:57:23;30.16;25.97;38.68;;
68279;Laerm;55108;51.790;10.960;2023-01-09T00:59:48;27.77;25.92;33.11;;
68279;Laerm;55108;51.790;10.960;2023-01-09T01:02:13;28.29;26.21;36.15;;
68279;Laerm;55108;51.790;10.960;2023-01-09T01:04:38;29.50;26.44;35.09;;
68279;Laerm;55108;51.790;10.960;2023-01-09T01:07:22;28.67;26.04;35.24;;
68279;Laerm;55108;51.790;10.960;2023-01-09T01:10:05;61.09;26.99;79.75;;
68279;Laerm;55108;51.790;10.960;2023-01-09T01:12:30;33.68;26.90;44.70;;
68279;Laerm;55108;51.790;10.960;2023-01-09T01:14:56;53.39;26.83;70.13;;
68279;Laerm;55108;51.790;10.960;2023-01-09T01:17:21;38.95;30.64;50.47;;
68279;Laerm;55108;51.790;10.960;2023-01-09T01:19:46;36.28;26.44;46.57;;
68279;Laerm;55108;51.790;10.960;2023-01-09T01:22:11;64.50;30.54;79.79;;
68279;Laerm;55108;51.790;10.960;2023-01-09T01:24:36;54.25;27.89;70.67;;
68279;Laerm;55108;51.790;10.960;2023-01-09T01:27:01;27.55;25.98;32.81;;
68279;Laerm;55108;51.790;10.960;2023-01-09T01:29:26;28.03;25.90;38.09;;
68279;Laerm;55108;51.790;10.960;2023-01-09T01:31:52;57.31;27.03;75.67;;
68279;Laerm;55108;51.790;10.960;2023-01-09T01:34:17;29.03;26.77;35.20;;
68279;Laerm;55108;51.790;10.960;2023-01-09T01:36:42;53.91;26.30;72.03;;
68279;Laerm;55108;51.790;10.960;2023-01-09T01:39:07;29.95;26.31;42.02;;
68279;Laerm;55108;51.790;10.960;2023-01-09T01:41:32;31.78;26.59;41.40;;
68279;Laerm;55108;51.790;10.960;2023-01-09T01:43:59;61.73;27.56;78.72;;
68279;Laerm;55108;51.790;10.960;2023-01-09T01:46:24;59.34;26.77;75.75;;
68279;Laerm;55108;51.790;10.960;2023-01-09T01:48:51;29.47;26.25;35.08;;
68279;Laerm;55108;51.790;10.960;2023-01-09T01:51:18;28.14;25.97;34.23;;
68279;Laerm;55108;51.790;10.960;2023-01-09T01:53:47;30.99;26.31;43.71;;
68279;Laerm;55108;51.790;10.960;2023-01-09T01:58:40;51.95;26.50;68.74;;
68279;Laerm;55108;51.790;10.960;2023-01-09T02:01:07;30.35;26.45;39.05;;
68279;Laerm;55108;51.790;10.960;2023-01-09T02:03:32;29.94;26.57;35.78;;
68279;Laerm;55108;51.790;10.960;2023-01-09T02:05:57;60.95;27.08;80.89;;
68279;Laerm;55108;51.790;10.960;2023-01-09T02:08:23;30.05;26.92;36.95;;
68279;Laerm;55108;51.790;10.960;2023-01-09T02:10:48;56.33;27.10;75.70;;
68279;Laerm;55108;51.790;10.960;2023-01-09T02:13:13;36.47;27.67;54.72;;
68279;Laerm;55108;51.790;10.960;2023-01-09T02:15:46;55.42;28.34;72.25;;
68279;Laerm;55108;51.790;10.960;2023-01-09T02:21:12;34.41;29.37;51.51;;
68279;Laerm;55108;51.790;10.960;2023-01-09T02:29:51;33.10;29.25;48.33;;
68279;Laerm;55108;51.790;10.960;2023-01-09T02:31:50;38.38;32.00;54.40;;
68279;Laerm;55108;51.790;10.960;2023-01-09T02:34:20;54.78;35.58;71.37;;
68279;Laerm;55108;51.790;10.960;2023-01-09T02:37:06;57.58;39.73;76.02;;
68279;Laerm;55108;51.790;10.960;2023-01-09T02:39:36;47.58;42.42;58.80;;
68279;Laerm;55108;51.790;10.960;2023-01-09T02:42:10;52.34;43.43;67.72;;
68279;Laerm;55108;51.790;10.960;2023-01-09T02:44:37;56.60;42.05;78.90;;
68279;Laerm;55108;51.790;10.960;2023-01-09T02:49:54;47.99;41.23;61.80;;
68279;Laerm;55108;51.790;10.960;2023-01-09T02:52:43;58.50;44.39;78.19;;
68279;Laerm;55108;51.790;10.960;2023-01-09T02:55:18;48.85;44.52;56.00;;
68279;Laerm;55108;51.790;10.960;2023-01-09T02:58:03;50.27;45.32;59.40;;
68279;Laerm;55108;51.790;10.960;2023-01-09T03:00:53;47.73;44.53;63.72;;
68279;Laerm;55108;51.790;10.960;2023-01-09T03:06:09;61.41;41.62;81.75;;
68279;Laerm;55108;51.790;10.960;2023-01-09T03:08:39;67.15;42.25;83.90;;
68279;Laerm;55108;51.790;10.960;2023-01-09T03:11:05;59.33;40.23;77.34;;
68279;Laerm;55108;51.790;10.960;2023-01-09T03:13:37;67.74;43.23;83.71;;
68279;Laerm;55108;51.790;10.960;2023-01-09T03:16:06;68.26;41.21;85.82;;
68279;Laerm;55108;51.790;10.960;2023-01-09T03:18:31;43.77;40.39;57.28;;
68279;Laerm;55108;51.790;10.960;2023-01-09T03:20:58;44.98;41.35;54.15;;
68279;Laerm;55108;51.790;10.960;2023-01-09T03:23:23;63.65;41.74;78.49;;
68279;Laerm;55108;51.790;10.960;2023-01-09T03:25:48;67.26;40.99;82.47;;
68279;Laerm;55108;51.790;10.960;2023-01-09T03:28:29;44.58;41.40;50.47;;
68279;Laerm;55108;51.790;10.960;2023-01-09T03:30:54;59.02;41.61;75.83;;
68279;Laerm;55108;51.790;10.960;2023-01-09T03:33:19;56.58;41.55;72.93;;
68279;Laerm;55108;51.790;10.960;2023-01-09T03:35:44;43.84;40.07;56.30;;
68279;Laerm;55108;51.790;10.960;2023-01-09T03:38:10;44.04;40.00;52.89;;
68279;Laerm;55108;51.790;10.960;2023-01-09T03:40:35;71.04;41.79;92.79;;
68279;Laerm;55108;51.790;10.960;2023-01-09T03:43:00;71.38;39.91;87.34;;
68279;Laerm;55108;51.790;10.960;2023-01-09T03:45:25;60.58;40.14;77.65;;
68279;Laerm;55108;51.790;10.960;2023-01-09T03:47:50;67.71;41.24;83.33;;
68279;Laerm;55108;51.790;10.960;2023-01-09T03:50:16;56.17;41.78;71.15;;
68279;Laerm;55108;51.790;10.960;2023-01-09T03:52:41;67.32;43.41;82.27;;
68279;Laerm;55108;51.790;10.960;2023-01-09T03:55:06;58.61;43.28;75.28;;
68279;Laerm;55108;51.790;10.960;2023-01-09T03:57:31;66.06;41.54;84.69;;
68279;Laerm;55108;51.790;10.960;2023-01-09T03:59:56;43.99;40.60;51.07;;
68279;Laerm;55108;51.790;10.960;2023-01-09T04:02:21;62.25;40.59;78.27;;
68279;Laerm;55108;51.790;10.960;2023-01-09T04:04:47;45.10;41.86;52.48;;
68279;Laerm;55108;51.790;10.960;2023-01-09T04:07:12;68.71;41.42;84.68;;
68279;Laerm;55108;51.790;10.960;2023-01-09T04:09:37;66.53;42.10;83.46;;
68279;Laerm;55108;51.790;10.960;2023-01-09T04:12:02;58.95;42.13;76.85;;
68279;Laerm;55108;51.790;10.960;2023-01-09T04:14:27;61.45;43.82;74.23;;
68279;Laerm;55108;51.790;10.960;2023-01-09T04:16:52;70.46;41.21;87.27;;
68279;Laerm;55108;51.790;10.960;2023-01-09T04:19:17;71.17;40.86;83.91;;
68279;Laerm;55108;51.790;10.960;2023-01-09T04:21:42;62.68;36.97;80.71;;
68279;Laerm;55108;51.790;10.960;2023-01-09T04:24:08;59.23;37.04;73.53;;
68279;Laerm;55108;51.790;10.960;2023-01-09T04:26:33;65.14;39.45;80.16;;
68279;Laerm;55108;51.790;10.960;2023-01-09T04:28:58;71.53;40.65;87.38;;
68279;Laerm;55108;51.790;10.960;2023-01-09T04:31:24;62.70;42.27;81.13;;
68279;Laerm;55108;51.790;10.960;2023-01-09T04:33:49;68.53;46.33;80.05;;
68279;Laerm;55108;51.790;10.960;2023-01-09T04:36:15;68.07;40.39;82.94;;
68279;Laerm;55108;51.790;10.960;2023-01-09T04:38:40;67.13;40.83;80.31;;
68279;Laerm;55108;51.790;10.960;2023-01-09T04:41:05;70.34;42.98;85.17;;
68279;Laerm;55108;51.790;10.960;2023-01-09T04:43:30;71.90;43.44;86.22;;
68279;Laerm;55108;51.790;10.960;2023-01-09T04:45:55;64.46;37.82;79.37;;
68279;Laerm;55108;51.790;10.960;2023-01-09T04:48:20;72.32;47.03;85.06;;
68279;Laerm;55108;51.790;10.960;2023-01-09T04:50:46;69.49;44.58;83.57;;
68279;Laerm;55108;51.790;10.960;2023-01-09T04:53:11;68.77;51.57;78.88;;
68279;Laerm;55108;51.790;10.960;2023-01-09T04:55:36;68.70;44.70;80.12;;
68279;Laerm;55108;51.790;10.960;2023-01-09T04:58:01;72.18;50.53;84.12;;
68279;Laerm;55108;51.790;10.960;2023-01-09T05:00:26;64.44;39.86;78.17;;
68279;Laerm;55108;51.790;10.960;2023-01-09T05:02:51;64.87;38.39;78.00;;
68279;Laerm;55108;51.790;10.960;2023-01-09T05:05:16;68.27;36.24;85.60;;
68279;Laerm;55108;51.790;10.960;2023-01-09T05:07:42;62.83;38.32;78.13;;
68279;Laerm;55108;51.790;10.960;2023-01-09T05:10:07;73.47;51.71;87.46;;
68279;Laerm;55108;51.790;10.960;2023-01-09T05:12:33;67.37;37.73;84.52;;
68279;Laerm;55108;51.790;10.960;2023-01-09T05:15:02;65.00;38.69;79.84;;
68279;Laerm;55108;51.790;10.960;2023-01-09T05:17:27;67.99;39.78;82.95;;
68279;Laerm;55108;51.790;10.960;2023-01-09T05:19:52;68.42;39.77;81.84;;
68279;Laerm;55108;51.790;10.960;2023-01-09T05:22:17;69.65;42.06;83.24;;
68279;Laerm;55108;51.790;10.960;2023-01-09T05:24:42;70.43;41.40;85.45;;
68279;Laerm;55108;51.790;10.960;2023-01-09T05:27:07;66.23;39.30;79.24;;
68279;Laerm;55108;51.790;10.960;2023-01-09T05:29:32;72.67;45.25;91.64;;
68279;Laerm;55108;51.790;10.960;2023-01-09T05:31:58;65.97;44.59;82.07;;
68279;Laerm;55108;51.790;10.960;2023-01-09T05:34:23;68.96;42.76;84.46;;
68279;Laerm;55108;51.790;10.960;2023-01-09T05:36:48;67.19;35.14;79.46;;
68279;Laerm;55108;51.790;10.960;2023-01-09T05:39:13;67.26;36.37;82.73;;
68279;Laerm;55108;51.790;10.960;2023-01-09T05:41:38;69.51;47.16;81.55;;
68279;Laerm;55108;51.790;10.960;2023-01-09T05:44:03;67.04;49.15;78.90;;
68279;Laerm;55108;51.790;10.960;2023-01-09T05:46:29;66.67;40.76;79.99;;
68279;Laerm;55108;51.790;10.960;2023-01-09T05:48:54;70.74;41.51;85.83;;
68279;Laerm;55108;51.790;10.960;2023-01-09T05:51:19;69.19;41.85;82.80;;
68279;Laerm;55108;51.790;10.960;2023-01-09T05:53:44;66.98;41.86;79.68;;
68279;Laerm;55108;51.790;10.960;2023-01-09T05:56:09;65.99;40.73;80.13;;
68279;Laerm;55108;51.790;10.960;2023-01-09T05:58:35;68.82;44.94;83.73;;
68279;Laerm;55108;51.790;10.960;2023-01-09T06:01:00;63.91;40.79;77.57;;
68279;Laerm;55108;51.790;10.960;2023-01-09T06:03:25;68.06;48.42;76.58;;
68279;Laerm;55108;51.790;10.960;2023-01-09T06:05:50;70.38;43.50;83.57;;
68279;Laerm;55108;51.790;10.960;2023-01-09T06:08:15;69.70;44.34;85.89;;
68279;Laerm;55108;51.790;10.960;2023-01-09T06:10:40;67.25;46.19;79.80;;
68279;Laerm;55108;51.790;10.960;2023-01-09T06:13:06;69.32;48.89;82.70;;
68279;Laerm;55108;51.790;10.960;2023-01-09T06:15:31;70.28;46.02;80.79;;
68279;Laerm;55108;51.790;10.960;2023-01-09T06:17:56;68.46;44.90;82.30;;
68279;Laerm;55108;51.790;10.960;2023-01-09T06:20:21;68.54;44.10;82.45;;
68279;Laerm;55108;51.790;10.960;2023-01-09T06:22:46;67.57;44.97;78.87;;
68279;Laerm;55108;51.790;10.960;2023-01-09T06:25:11;64.21;43.35;76.96;;
68279;Laerm;55108;51.790;10.960;2023-01-09T06:27:36;70.09;48.41;83.35;;
68279;Laerm;55108;51.790;10.960;2023-01-09T06:30:02;67.86;43.52;80.89;;
68279;Laerm;55108;51.790;10.960;2023-01-09T06:32:27;66.64;40.91;77.93;;
68279;Laerm;55108;51.790;10.960;2023-01-09T06:34:52;68.88;48.53;83.84;;
68279;Laerm;55108;51.790;10.960;2023-01-09T06:37:17;68.83;49.69;83.59;;
68279;Laerm;55108;51.790;10.960;2023-01-09T06:39:42;65.86;43.77;80.43;;
68279;Laerm;55108;51.790;10.960;2023-01-09T06:42:08;70.32;49.24;81.74;;
68279;Laerm;55108;51.790;10.960;2023-01-09T06:44:33;66.51;45.72;76.73;;
68279;Laerm;55108;51.790;10.960;2023-01-09T06:47:00;67.19;47.18;78.18;;
68279;Laerm;55108;51.790;10.960;2023-01-09T06:49:25;71.50;50.96;85.55;;
68279;Laerm;55108;51.790;10.960;2023-01-09T06:51:50;68.82;48.70;78.59;;
68279;Laerm;55108;51.790;10.960;2023-01-09T06:54:16;64.25;41.84;74.47;;
68279;Laerm;55108;51.790;10.960;2023-01-09T06:56:42;68.27;44.41;81.78;;
68279;Laerm;55108;51.790;10.960;2023-01-09T06:59:07;65.71;41.13;76.38;;
68279;Laerm;55108;51.790;10.960;2023-01-09T07:01:32;67.18;44.73;79.92;;
68279;Laerm;55108;51.790;10.960;2023-01-09T07:03:57;68.52;42.94;81.23;;
68279;Laerm;55108;51.790;10.960;2023-01-09T07:06:22;67.93;45.62;80.55;;
68279;Laerm;55108;51.790;10.960;2023-01-09T07:08:47;67.18;45.03;81.43;;
68279;Laerm;55108;51.790;10.960;2023-01-09T07:11:12;66.47;40.94;79.63;;
68279;Laerm;55108;51.790;10.960;2023-01-09T07:13:38;67.10;37.78;82.67;;
68279;Laerm;55108;51.790;10.960;2023-01-09T07:16:03;66.98;46.09;82.96;;
68279;Laerm;55108;51.790;10.960;2023-01-09T07:18:29;68.57;43.95;82.80;;
68279;Laerm;55108;51.790;10.960;2023-01-09T07:20:54;68.55;47.06;83.90;;
68279;Laerm;55108;51.790;10.960;2023-01-09T07:23:19;66.25;45.15;75.35;;
68279;Laerm;55108;51.790;10.960;2023-01-09T07:25:45;69.64;46.62;84.25;;
68279;Laerm;55108;51.790;10.960;2023-01-09T07:28:10;67.56;43.44;80.40;;
68279;Laerm;55108;51.790;10.960;2023-01-09T07:30:35;67.43;38.88;77.80;;
68279;Laerm;55108;51.790;10.960;2023-01-09T07:33:00;68.56;43.20;85.30;;
68279;Laerm;55108;51.790;10.960;2023-01-09T07:35:26;67.14;50.19;78.33;;
68279;Laerm;55108;51.790;10.960;2023-01-09T07:37:51;69.30;43.51;84.95;;
68279;Laerm;55108;51.790;10.960;2023-01-09T07:40:16;65.27;39.78;78.09;;
68279;Laerm;55108;51.790;10.960;2023-01-09T07:42:41;68.39;43.31;81.35;;
68279;Laerm;55108;51.790;10.960;2023-01-09T07:45:06;67.98;44.96;82.54;;
68279;Laerm;55108;51.790;10.960;2023-01-09T07:47:32;69.41;48.88;78.77;;
68279;Laerm;55108;51.790;10.960;2023-01-09T07:49:57;68.66;41.87;81.20;;
68279;Laerm;55108;51.790;10.960;2023-01-09T07:52:22;69.97;49.59;81.12;;
68279;Laerm;55108;51.790;10.960;2023-01-09T07:54:47;69.29;48.51;77.78;;
68279;Laerm;55108;51.790;10.960;2023-01-09T07:57:12;65.99;42.99;78.79;;
68279;Laerm;55108;51.790;10.960;2023-01-09T07:59:38;67.13;39.35;83.43;;
68279;Laerm;55108;51.790;10.960;2023-01-09T08:02:03;70.09;47.98;86.96;;
68279;Laerm;55108;51.790;10.960;2023-01-09T08:04:29;67.58;35.40;82.32;;
68279;Laerm;55108;51.790;10.960;2023-01-09T08:06:54;69.03;46.73;83.15;;
68279;Laerm;55108;51.790;10.960;2023-01-09T08:09:20;67.69;45.07;79.15;;
68279;Laerm;55108;51.790;10.960;2023-01-09T08:11:45;66.46;39.03;78.45;;
68279;Laerm;55108;51.790;10.960;2023-01-09T08:14:11;67.12;41.33;80.61;;
68279;Laerm;55108;51.790;10.960;2023-01-09T08:16:36;68.40;46.74;79.39;;
68279;Laerm;55108;51.790;10.960;2023-01-09T08:19:01;67.20;46.96;77.87;;
68279;Laerm;55108;51.790;10.960;2023-01-09T08:21:26;64.73;37.83;79.90;;
68279;Laerm;55108;51.790;10.960;2023-01-09T08:23:51;68.70;43.63;84.77;;
68279;Laerm;55108;51.790;10.960;2023-01-09T08:26:16;68.22;52.03;81.03;;
68279;Laerm;55108;51.790;10.960;2023-01-09T08:28:43;67.12;42.47;77.21;;
68279;Laerm;55108;51.790;10.960;2023-01-09T08:31:08;69.04;46.85;83.33;;
68279;Laerm;55108;51.790;10.960;2023-01-09T08:33:33;66.86;46.51;77.70;;
68279;Laerm;55108;51.790;10.960;2023-01-09T08:35:58;69.42;50.32;79.34;;
68279;Laerm;55108;51.790;10.960;2023-01-09T08:38:24;66.66;45.85;80.15;;
68279;Laerm;55108;51.790;10.960;2023-01-09T08:40:49;66.41;45.88;79.83;;
68279;Laerm;55108;51.790;10.960;2023-01-09T08:43:14;67.83;47.88;79.65;;
68279;Laerm;55108;51.790;10.960;2023-01-09T08:45:58;70.34;49.66;82.31;;
68279;Laerm;55108;51.790;10.960;2023-01-09T08:48:42;68.30;51.43;81.38;;
68279;Laerm;55108;51.790;10.960;2023-01-09T08:51:07;69.66;46.13;81.60;;
68279;Laerm;55108;51.790;10.960;2023-01-09T08:53:32;69.15;43.18;81.16;;
68279;Laerm;55108;51.790;10.960;2023-01-09T08:55:57;68.53;50.61;80.33;;
68279;Laerm;55108;51.790;10.960;2023-01-09T08:58:23;67.60;46.61;80.15;;
68279;Laerm;55108;51.790;10.960;2023-01-09T09:00:48;67.74;46.22;78.95;;
68279;Laerm;55108;51.790;10.960;2023-01-09T09:03:13;67.85;49.00;80.72;;
68279;Laerm;55108;51.790;10.960;2023-01-09T09:05:38;68.19;47.42;85.03;;
68279;Laerm;55108;51.790;10.960;2023-01-09T09:08:03;70.10;50.14;79.23;;
68279;Laerm;55108;51.790;10.960;2023-01-09T09:10:29;68.20;48.98;82.43;;
68279;Laerm;55108;51.790;10.960;2023-01-09T09:12:55;66.65;43.74;78.84;;
68279;Laerm;55108;51.790;10.960;2023-01-09T09:15:21;68.09;46.87;82.98;;
68279;Laerm;55108;51.790;10.960;2023-01-09T09:17:50;68.84;45.95;82.82;;
68279;Laerm;55108;51.790;10.960;2023-01-09T09:20:18;68.31;42.97;84.19;;
68279;Laerm;55108;51.790;10.960;2023-01-09T09:22:44;68.65;43.05;80.50;;
68279;Laerm;55108;51.790;10.960;2023-01-09T09:25:09;68.24;46.04;78.84;;
68279;Laerm;55108;51.790;10.960;2023-01-09T09:27:34;67.90;43.84;78.16;;
68279;Laerm;55108;51.790;10.960;2023-01-09T09:30:01;68.73;48.34;81.29;;
68279;Laerm;55108;51.790;10.960;2023-01-09T09:32:26;69.65;45.02;81.19;;
68279;Laerm;55108;51.790;10.960;2023-01-09T09:34:52;67.19;46.04;77.60;;
68279;Laerm;55108;51.790;10.960;2023-01-09T09:37:17;69.31;49.18;79.25;;
68279;Laerm;55108;51.790;10.960;2023-01-09T09:39:42;70.59;52.64;83.57;;
68279;Laerm;55108;51.790;10.960;2023-01-09T09:47:47;68.28;47.50;78.06;;
68279;Laerm;55108;51.790;10.960;2023-01-09T09:55:39;69.27;43.92;81.83;;
68279;Laerm;55108;51.790;10.960;2023-01-09T09:58:48;67.05;42.17;78.58;;
68279;Laerm;55108;51.790;10.960;2023-01-09T10:00:53;69.92;47.98;84.37;;
68279;Laerm;55108;51.790;10.960;2023-01-09T10:05:44;67.83;47.15;77.17;;
68279;Laerm;55108;51.790;10.960;2023-01-09T10:08:21;67.99;43.68;78.91;;
68279;Laerm;55108;51.790;10.960;2023-01-09T10:10:50;70.21;48.20;85.60;;
68279;Laerm;55108;51.790;10.960;2023-01-09T10:13:17;66.99;42.19;76.68;;
68279;Laerm;55108;51.790;10.960;2023-01-09T10:16:07;64.19;41.26;76.32;;
68279;Laerm;55108;51.790;10.960;2023-01-09T10:18:45;67.54;45.09;83.68;;
68279;Laerm;55108;51.790;10.960;2023-01-09T10:21:21;66.31;42.87;76.04;;
68279;Laerm;55108;51.790;10.960;2023-01-09T10:24:08;68.06;43.57;81.12;;
68279;Laerm;55108;51.790;10.960;2023-01-09T10:26:44;68.35;43.30;84.01;;
68279;Laerm;55108;51.790;10.960;2023-01-09T10:34:29;67.75;41.39;81.11;;
68279;Laerm;55108;51.790;10.960;2023-01-09T10:37:07;67.23;42.26;82.24;;
68279;Laerm;55108;51.790;10.960;2023-01-09T10:39:46;67.42;42.05;81.00;;
68279;Laerm;55108;51.790;10.960;2023-01-09T10:42:25;67.08;44.87;77.54;;
68279;Laerm;55108;51.790;10.960;2023-01-09T10:45:06;67.56;43.28;81.81;;
68279;Laerm;55108;51.790;10.960;2023-01-09T10:47:39;67.90;49.92;80.49;;
68279;Laerm;55108;51.790;10.960;2023-01-09T10:50:18;65.94;40.10;89.78;;
68279;Laerm;55108;51.790;10.960;2023-01-09T10:52:43;60.86;37.52;73.54;;
68279;Laerm;55108;51.790;10.960;2023-01-09T10:55:31;70.24;51.33;82.49;;
68279;Laerm;55108;51.790;10.960;2023-01-09T10:58:03;67.65;44.34;79.98;;
68279;Laerm;55108;51.790;10.960;2023-01-09T11:00:34;68.17;50.26;83.25;;
68279;Laerm;55108;51.790;10.960;2023-01-09T11:03:00;65.34;46.66;77.67;;
68279;Laerm;55108;51.790;10.960;2023-01-09T11:05:28;65.39;43.58;75.63;;
68279;Laerm;55108;51.790;10.960;2023-01-09T11:08:02;66.25;42.92;76.68;;
68279;Laerm;55108;51.790;10.960;2023-01-09T11:13:13;67.48;44.59;78.43;;
68279;Laerm;55108;51.790;10.960;2023-01-09T11:15:39;68.06;44.86;78.58;;
68279;Laerm;55108;51.790;10.960;2023-01-09T11:18:20;67.35;42.60;80.22;;
68279;Laerm;55108;51.790;10.960;2023-01-09T11:20:48;66.84;45.08;78.67;;
68279;Laerm;55108;51.790;10.960;2023-01-09T11:23:47;65.66;43.58;75.46;;
68279;Laerm;55108;51.790;10.960;2023-01-09T11:26:08;66.65;36.32;79.36;;
68279;Laerm;55108;51.790;10.960;2023-01-09T11:28:44;68.47;43.33;84.92;;
68279;Laerm;55108;51.790;10.960;2023-01-09T11:31:23;67.03;43.60;82.93;;
68279;Laerm;55108;51.790;10.960;2023-01-09T11:33:49;66.77;43.89;78.88;;
68279;Laerm;55108;51.790;10.960;2023-01-09T11:36:15;67.88;41.89;80.31;;
68279;Laerm;55108;51.790;10.960;2023-01-09T11:38:59;66.68;41.26;78.71;;
68279;Laerm;55108;51.790;10.960;2023-01-09T11:41:34;67.39;45.04;83.37;;
68279;Laerm;55108;51.790;10.960;2023-01-09T11:43:59;66.30;42.68;76.03;;
68279;Laerm;55108;51.790;10.960;2023-01-09T11:46:36;64.53;35.97;75.63;;
68279;Laerm;55108;51.790;10.960;2023-01-09T11:49:35;68.80;43.98;83.08;;
68279;Laerm;55108;51.790;10.960;2023-01-09T11:52:10;67.76;50.91;81.85;;
68279;Laerm;55108;51.790;10.960;2023-01-09T11:54:37;72.54;45.76;89.10;;
68279;Laerm;55108;51.790;10.960;2023-01-09T11:57:04;68.87;49.19;82.29;;
68279;Laerm;55108;51.790;10.960;2023-01-09T11:59:29;64.24;40.23;75.81;;
68279;Laerm;55108;51.790;10.960;2023-01-09T12:01:57;71.48;50.59;90.77;;
68279;Laerm;55108;51.790;10.960;2023-01-09T12:04:41;67.47;44.69;82.12;;
68279;Laerm;55108;51.790;10.960;2023-01-09T12:07:15;67.76;42.41;80.92;;
68279;Laerm;55108;51.790;10.960;2023-01-09T12:14:43;68.01;39.92;82.96;;
68279;Laerm;55108;51.790;10.960;2023-01-09T12:17:32;67.68;38.19;79.29;;
68279;Laerm;55108;51.790;10.960;2023-01-09T12:20:24;66.82;48.04;75.88;;
68279;Laerm;55108;51.790;10.960;2023-01-09T12:23:12;66.15;39.61;79.70;;
68279;Laerm;55108;51.790;10.960;2023-01-09T12:25:43;68.50;42.79;83.01;;
68279;Laerm;55108;51.790;10.960;2023-01-09T12:31:06;67.24;45.71;80.65;;
68279;Laerm;55108;51.790;10.960;2023-01-09T12:33:41;66.82;41.75;75.90;;
68279;Laerm;55108;51.790;10.960;2023-01-09T12:38:39;66.28;42.75;82.29;;
68279;Laerm;55108;51.790;10.960;2023-01-09T12:46:18;61.68;41.76;73.40;;
68279;Laerm;55108;51.790;10.960;2023-01-09T12:51:30;67.82;49.41;80.83;;
68279;Laerm;55108;51.790;10.960;2023-01-09T12:56:39;68.25;45.95;86.14;;
68279;Laerm;55108;51.790;10.960;2023-01-09T12:59:14;66.68;44.43;88.00;;
68279;Laerm;55108;51.790;10.960;2023-01-09T13:01:44;68.29;46.24;81.22;;
68279;Laerm;55108;51.790;10.960;2023-01-09T13:04:18;70.25;43.61;94.15;;
68279;Laerm;55108;51.790;10.960;2023-01-09T13:06:47;68.21;43.00;85.47;;
68279;Laerm;55108;51.790;10.960;2023-01-09T13:09:24;64.11;40.67;75.73;;
68279;Laerm;55108;51.790;10.960;2023-01-09T13:17:10;67.14;45.46;83.74;;
68279;Laerm;55108;51.790;10.960;2023-01-09T13:19:38;67.83;46.39;84.67;;
68279;Laerm;55108;51.790;10.960;2023-01-09T13:22:06;68.51;48.34;82.56;;
68279;Laerm;55108;51.790;10.960;2023-01-09T13:24:53;69.13;44.72;82.57;;
68279;Laerm;55108;51.790;10.960;2023-01-09T13:27:19;66.94;48.18;81.05;;
68279;Laerm;55108;51.790;10.960;2023-01-09T13:29:48;68.00;45.72;81.92;;
68279;Laerm;55108;51.790;10.960;2023-01-09T13:32:23;64.16;38.56;76.68;;
68279;Laerm;55108;51.790;10.960;2023-01-09T13:34:53;70.81;41.00;84.00;;
68279;Laerm;55108;51.790;10.960;2023-01-09T13:37:22;66.40;42.12;81.61;;
68279;Laerm;55108;51.790;10.960;2023-01-09T13:39:56;68.60;43.05;83.92;;
68279;Laerm;55108;51.790;10.960;2023-01-09T13:42:21;64.26;39.50;79.04;;
68279;Laerm;55108;51.790;10.960;2023-01-09T13:45:10;68.45;43.94;80.25;;
68279;Laerm;55108;51.790;10.960;2023-01-09T13:47:43;67.08;48.23;79.27;;
68279;Laerm;55108;51.790;10.960;2023-01-09T13:52:34;67.49;44.05;80.77;;
68279;Laerm;55108;51.790;10.960;2023-01-09T13:57:35;68.16;47.22;79.84;;
68279;Laerm;55108;51.790;10.960;2023-01-09T14:07:33;65.80;48.87;76.62;;
68279;Laerm;55108;51.790;10.960;2023-01-09T14:10:00;68.10;46.85;81.09;;
68279;Laerm;55108;51.790;10.960;2023-01-09T14:12:26;67.88;48.63;84.01;;
68279;Laerm;55108;51.790;10.960;2023-01-09T14:14:53;70.01;49.77;85.05;;
68279;Laerm;55108;51.790;10.960;2023-01-09T14:17:25;68.62;50.47;83.24;;
68279;Laerm;55108;51.790;10.960;2023-01-09T14:19:56;66.02;46.37;78.10;;
68279;Laerm;55108;51.790;10.960;2023-01-09T14:22:23;68.37;46.07;79.68;;
68279;Laerm;55108;51.790;10.960;2023-01-09T14:24:48;66.41;42.21;77.44;;
68279;Laerm;55108;51.790;10.960;2023-01-09T14:32:54;68.81;50.49;82.05;;
68279;Laerm;55108;51.790;10.960;2023-01-09T14:38:02;66.57;42.05;78.21;;
68279;Laerm;55108;51.790;10.960;2023-01-09T14:40:28;67.71;50.49;77.94;;
68279;Laerm;55108;51.790;10.960;2023-01-09T14:42:54;68.36;45.07;84.96;;
68279;Laerm;55108;51.790;10.960;2023-01-09T14:45:24;68.70;43.85;79.35;;
68279;Laerm;55108;51.790;10.960;2023-01-09T14:47:57;65.24;42.97;75.28;;
68279;Laerm;55108;51.790;10.960;2023-01-09T14:50:41;67.80;46.12;78.96;;
68279;Laerm;55108;51.790;10.960;2023-01-09T14:53:12;68.10;48.75;81.06;;
68279;Laerm;55108;51.790;10.960;2023-01-09T14:55:45;67.10;46.26;78.67;;
68279;Laerm;55108;51.790;10.960;2023-01-09T15:00:36;67.31;48.62;77.76;;
68279;Laerm;55108;51.790;10.960;2023-01-09T15:03:09;70.10;50.71;83.77;;
68279;Laerm;55108;51.790;10.960;2023-01-09T15:05:35;69.13;42.59;81.59;;